sensor_id;sensor_type;location;lat;lon;timestamp;P1;durP1;ratioP1;P2;durP2;ratioP2
77518;SDS011;66629;47.346;19.038;2023-04-15T00:00:10;9.40;;;7.53;;
77518;SDS011;66629;47.346;19.038;2023-04-15T00:02:36;10.18;;;7.43;;
77518;SDS011;66629;47.346;19.038;2023-04-15T00:05:02;10.15;;;7.82;;
77518;SDS011;66629;47.346;19.038;2023-04-15T00:07:29;10.23;;;8.00;;
77518;SDS011;66629;47.346;19.038;2023-04-15T00:09:54;10.25;;;7.35;;
77518;SDS011;66629;47.346;19.038;2023-04-15T00:12:21;10.18;;;7.60;;
77518;SDS011;66629;47.346;19.038;2023-04-15T00:14:47;10.13;;;6.95;;
77518;SDS011;66629;47.346;19.038;2023-04-15T00:17:14;11.07;;;7.80;;
77518;SDS011;66629;47.346;19.038;2023-04-15T00:19:39;10.02;;;7.15;;
77518;SDS011;66629;47.346;19.038;2023-04-15T00:22:05;10.85;;;7.68;;
77518;SDS011;66629;47.346;19.038;2023-04-15T00:24:32;10.00;;;7.50;;
77518;SDS011;66629;47.346;19.038;2023-04-15T00:26:58;10.70;;;7.32;;
77518;SDS011;66629;47.346;19.038;2023-04-15T00:29:24;9.93;;;6.88;;
77518;SDS011;66629;47.346;19.038;2023-04-15T00:31:49;9.52;;;6.85;;
77518;SDS011;66629;47.346;19.038;2023-04-15T00:34:15;10.68;;;7.03;;
77518;SDS011;66629;47.346;19.038;2023-04-15T00:36:40;8.65;;;6.80;;
77518;SDS011;66629;47.346;19.038;2023-04-15T00:39:06;8.48;;;6.10;;
77518;SDS011;66629;47.346;19.038;2023-04-15T00:41:31;9.55;;;6.90;;
77518;SDS011;66629;47.346;19.038;2023-04-15T00:43:58;10.10;;;6.38;;
77518;SDS011;66629;47.346;19.038;2023-04-15T00:46:25;9.45;;;7.35;;
77518;SDS011;66629;47.346;19.038;2023-04-15T00:48:53;11.60;;;7.85;;
77518;SDS011;66629;47.346;19.038;2023-04-15T00:51:19;10.65;;;8.13;;
77518;SDS011;66629;47.346;19.038;2023-04-15T00:53:44;10.95;;;7.97;;
77518;SDS011;66629;47.346;19.038;2023-04-15T00:56:10;13.63;;;8.88;;
77518;SDS011;66629;47.346;19.038;2023-04-15T00:58:36;8.95;;;6.93;;
77518;SDS011;66629;47.346;19.038;2023-04-15T01:01:01;10.02;;;6.82;;
77518;SDS011;66629;47.346;19.038;2023-04-15T01:03:28;9.50;;;6.82;;
77518;SDS011;66629;47.346;19.038;2023-04-15T01:05:54;8.35;;;6.40;;
77518;SDS011;66629;47.346;19.038;2023-04-15T01:08:31;9.77;;;6.82;;
77518;SDS011;66629;47.346;19.038;2023-04-15T01:10:57;9.18;;;6.50;;
77518;SDS011;66629;47.346;19.038;2023-04-15T01:13:25;11.82;;;6.95;;
77518;SDS011;66629;47.346;19.038;2023-04-15T01:15:51;9.25;;;6.72;;
77518;SDS011;66629;47.346;19.038;2023-04-15T01:18:17;10.90;;;7.22;;
77518;SDS011;66629;47.346;19.038;2023-04-15T01:20:43;8.82;;;6.50;;
77518;SDS011;66629;47.346;19.038;2023-04-15T01:23:09;10.52;;;6.80;;
77518;SDS011;66629;47.346;19.038;2023-04-15T01:25:35;9.40;;;7.15;;
77518;SDS011;66629;47.346;19.038;2023-04-15T01:28:01;8.43;;;6.82;;
77518;SDS011;66629;47.346;19.038;2023-04-15T01:30:27;8.82;;;6.50;;
77518;SDS011;66629;47.346;19.038;2023-04-15T01:32:53;10.40;;;8.23;;
77518;SDS011;66629;47.346;19.038;2023-04-15T01:35:18;8.68;;;6.65;;
77518;SDS011;66629;47.346;19.038;2023-04-15T01:37:44;9.57;;;6.70;;
77518;SDS011;66629;47.346;19.038;2023-04-15T01:40:10;10.55;;;7.45;;
77518;SDS011;66629;47.346;19.038;2023-04-15T01:42:36;11.65;;;6.80;;
77518;SDS011;66629;47.346;19.038;2023-04-15T01:45:01;8.85;;;7.32;;
77518;SDS011;66629;47.346;19.038;2023-04-15T01:47:27;10.57;;;7.60;;
77518;SDS011;66629;47.346;19.038;2023-04-15T01:49:53;10.10;;;7.57;;
77518;SDS011;66629;47.346;19.038;2023-04-15T01:52:18;9.73;;;7.05;;
77518;SDS011;66629;47.346;19.038;2023-04-15T01:54:43;9.13;;;7.40;;
77518;SDS011;66629;47.346;19.038;2023-04-15T01:57:09;10.35;;;7.30;;
77518;SDS011;66629;47.346;19.038;2023-04-15T01:59:35;11.38;;;7.18;;
77518;SDS011;66629;47.346;19.038;2023-04-15T02:02:01;9.60;;;7.00;;
77518;SDS011;66629;47.346;19.038;2023-04-15T02:04:26;9.02;;;6.72;;
77518;SDS011;66629;47.346;19.038;2023-04-15T02:06:52;9.32;;;6.82;;
77518;SDS011;66629;47.346;19.038;2023-04-15T02:09:17;9.30;;;6.55;;
77518;SDS011;66629;47.346;19.038;2023-04-15T02:11:43;9.27;;;6.20;;
77518;SDS011;66629;47.346;19.038;2023-04-15T02:14:10;8.90;;;6.65;;
77518;SDS011;66629;47.346;19.038;2023-04-15T02:16:35;7.93;;;6.05;;
77518;SDS011;66629;47.346;19.038;2023-04-15T02:19:01;7.80;;;6.03;;
77518;SDS011;66629;47.346;19.038;2023-04-15T02:21:28;8.27;;;6.43;;
77518;SDS011;66629;47.346;19.038;2023-04-15T02:23:53;8.02;;;6.03;;
77518;SDS011;66629;47.346;19.038;2023-04-15T02:26:19;9.10;;;5.93;;
77518;SDS011;66629;47.346;19.038;2023-04-15T02:28:46;8.52;;;6.18;;
77518;SDS011;66629;47.346;19.038;2023-04-15T02:31:12;7.90;;;6.05;;
77518;SDS011;66629;47.346;19.038;2023-04-15T02:33:37;9.10;;;7.10;;
77518;SDS011;66629;47.346;19.038;2023-04-15T02:36:03;9.07;;;6.10;;
77518;SDS011;66629;47.346;19.038;2023-04-15T02:38:28;8.35;;;5.90;;
77518;SDS011;66629;47.346;19.038;2023-04-15T02:40:55;8.63;;;6.18;;
77518;SDS011;66629;47.346;19.038;2023-04-15T02:43:21;7.57;;;5.55;;
77518;SDS011;66629;47.346;19.038;2023-04-15T02:45:47;7.60;;;5.70;;
77518;SDS011;66629;47.346;19.038;2023-04-15T02:48:12;8.23;;;6.22;;
77518;SDS011;66629;47.346;19.038;2023-04-15T02:50:38;8.80;;;6.53;;
77518;SDS011;66629;47.346;19.038;2023-04-15T02:53:04;9.10;;;6.60;;
77518;SDS011;66629;47.346;19.038;2023-04-15T02:55:30;8.60;;;6.50;;
77518;SDS011;66629;47.346;19.038;2023-04-15T02:57:56;10.23;;;6.63;;
77518;SDS011;66629;47.346;19.038;2023-04-15T03:00:24;9.40;;;6.10;;
77518;SDS011;66629;47.346;19.038;2023-04-15T03:02:50;7.72;;;6.30;;
77518;SDS011;66629;47.346;19.038;2023-04-15T03:05:20;8.00;;;6.18;;
77518;SDS011;66629;47.346;19.038;2023-04-15T03:07:49;9.30;;;6.68;;
77518;SDS011;66629;47.346;19.038;2023-04-15T03:10:15;8.80;;;6.50;;
77518;SDS011;66629;47.346;19.038;2023-04-15T03:12:41;7.75;;;6.05;;
77518;SDS011;66629;47.346;19.038;2023-04-15T03:15:06;8.32;;;6.43;;
77518;SDS011;66629;47.346;19.038;2023-04-15T03:17:33;7.72;;;6.45;;
77518;SDS011;66629;47.346;19.038;2023-04-15T03:19:58;8.32;;;6.07;;
77518;SDS011;66629;47.346;19.038;2023-04-15T03:22:25;7.63;;;6.63;;
77518;SDS011;66629;47.346;19.038;2023-04-15T03:24:50;8.82;;;6.72;;
77518;SDS011;66629;47.346;19.038;2023-04-15T03:27:16;6.75;;;6.05;;
77518;SDS011;66629;47.346;19.038;2023-04-15T03:29:41;9.02;;;6.53;;
77518;SDS011;66629;47.346;19.038;2023-04-15T03:32:06;8.68;;;6.80;;
77518;SDS011;66629;47.346;19.038;2023-04-15T03:34:32;7.55;;;6.13;;
77518;SDS011;66629;47.346;19.038;2023-04-15T03:36:57;8.68;;;6.28;;
77518;SDS011;66629;47.346;19.038;2023-04-15T03:39:23;7.60;;;5.88;;
77518;SDS011;66629;47.346;19.038;2023-04-15T03:41:48;7.97;;;6.63;;
77518;SDS011;66629;47.346;19.038;2023-04-15T03:44:13;7.93;;;6.13;;
77518;SDS011;66629;47.346;19.038;2023-04-15T03:46:39;7.32;;;5.63;;
77518;SDS011;66629;47.346;19.038;2023-04-15T03:49:05;6.45;;;5.50;;
77518;SDS011;66629;47.346;19.038;2023-04-15T03:51:31;8.00;;;6.05;;
77518;SDS011;66629;47.346;19.038;2023-04-15T03:53:56;7.90;;;6.10;;
77518;SDS011;66629;47.346;19.038;2023-04-15T03:56:22;8.02;;;5.28;;
77518;SDS011;66629;47.346;19.038;2023-04-15T03:58:48;7.50;;;5.97;;
77518;SDS011;66629;47.346;19.038;2023-04-15T04:01:14;8.38;;;6.10;;
77518;SDS011;66629;47.346;19.038;2023-04-15T04:03:40;7.30;;;5.68;;
77518;SDS011;66629;47.346;19.038;2023-04-15T04:06:06;8.18;;;6.18;;
77518;SDS011;66629;47.346;19.038;2023-04-15T04:08:32;8.25;;;6.30;;
77518;SDS011;66629;47.346;19.038;2023-04-15T04:10:57;7.80;;;5.85;;
77518;SDS011;66629;47.346;19.038;2023-04-15T04:13:23;8.80;;;6.50;;
77518;SDS011;66629;47.346;19.038;2023-04-15T04:15:48;7.85;;;5.85;;
77518;SDS011;66629;47.346;19.038;2023-04-15T04:18:13;7.78;;;6.38;;
77518;SDS011;66629;47.346;19.038;2023-04-15T04:20:39;7.70;;;5.95;;
77518;SDS011;66629;47.346;19.038;2023-04-15T04:23:05;7.53;;;6.20;;
77518;SDS011;66629;47.346;19.038;2023-04-15T04:25:30;7.80;;;6.57;;
77518;SDS011;66629;47.346;19.038;2023-04-15T04:27:56;8.82;;;6.10;;
77518;SDS011;66629;47.346;19.038;2023-04-15T04:30:21;7.75;;;6.03;;
77518;SDS011;66629;47.346;19.038;2023-04-15T04:32:47;7.38;;;6.35;;
77518;SDS011;66629;47.346;19.038;2023-04-15T04:35:14;7.80;;;6.32;;
77518;SDS011;66629;47.346;19.038;2023-04-15T04:37:40;7.55;;;6.40;;
77518;SDS011;66629;47.346;19.038;2023-04-15T04:40:06;7.30;;;6.30;;
77518;SDS011;66629;47.346;19.038;2023-04-15T04:42:32;7.72;;;6.38;;
77518;SDS011;66629;47.346;19.038;2023-04-15T04:44:57;6.88;;;5.85;;
77518;SDS011;66629;47.346;19.038;2023-04-15T04:47:23;7.70;;;6.55;;
77518;SDS011;66629;47.346;19.038;2023-04-15T04:49:48;7.72;;;6.65;;
77518;SDS011;66629;47.346;19.038;2023-04-15T04:52:13;7.32;;;6.35;;
77518;SDS011;66629;47.346;19.038;2023-04-15T04:54:39;7.50;;;6.40;;
77518;SDS011;66629;47.346;19.038;2023-04-15T04:57:05;9.85;;;6.97;;
77518;SDS011;66629;47.346;19.038;2023-04-15T04:59:32;8.13;;;6.57;;
77518;SDS011;66629;47.346;19.038;2023-04-15T05:01:57;9.23;;;6.85;;
77518;SDS011;66629;47.346;19.038;2023-04-15T05:04:23;8.35;;;6.70;;
77518;SDS011;66629;47.346;19.038;2023-04-15T05:06:50;7.90;;;6.60;;
77518;SDS011;66629;47.346;19.038;2023-04-15T05:09:15;7.65;;;6.40;;
77518;SDS011;66629;47.346;19.038;2023-04-15T05:11:41;7.57;;;6.72;;
77518;SDS011;66629;47.346;19.038;2023-04-15T05:14:06;7.90;;;6.72;;
77518;SDS011;66629;47.346;19.038;2023-04-15T05:16:32;9.05;;;6.90;;
77518;SDS011;66629;47.346;19.038;2023-04-15T05:18:57;8.50;;;6.85;;
77518;SDS011;66629;47.346;19.038;2023-04-15T05:21:22;9.15;;;7.30;;
77518;SDS011;66629;47.346;19.038;2023-04-15T05:23:48;8.10;;;6.13;;
77518;SDS011;66629;47.346;19.038;2023-04-15T05:26:13;8.98;;;6.22;;
77518;SDS011;66629;47.346;19.038;2023-04-15T05:28:39;7.80;;;6.43;;
77518;SDS011;66629;47.346;19.038;2023-04-15T05:31:04;8.07;;;6.57;;
77518;SDS011;66629;47.346;19.038;2023-04-15T05:33:31;8.82;;;7.05;;
77518;SDS011;66629;47.346;19.038;2023-04-15T05:35:56;7.95;;;7.00;;
77518;SDS011;66629;47.346;19.038;2023-04-15T05:38:22;9.10;;;8.18;;
77518;SDS011;66629;47.346;19.038;2023-04-15T05:40:47;10.32;;;7.95;;
77518;SDS011;66629;47.346;19.038;2023-04-15T05:43:13;9.57;;;7.53;;
77518;SDS011;66629;47.346;19.038;2023-04-15T05:45:38;9.02;;;7.40;;
77518;SDS011;66629;47.346;19.038;2023-04-15T05:48:04;8.73;;;7.15;;
77518;SDS011;66629;47.346;19.038;2023-04-15T05:50:29;8.43;;;7.15;;
77518;SDS011;66629;47.346;19.038;2023-04-15T05:52:54;8.70;;;7.00;;
77518;SDS011;66629;47.346;19.038;2023-04-15T05:55:20;9.15;;;7.25;;
77518;SDS011;66629;47.346;19.038;2023-04-15T05:57:46;8.60;;;6.80;;
77518;SDS011;66629;47.346;19.038;2023-04-15T06:00:11;7.88;;;7.07;;
77518;SDS011;66629;47.346;19.038;2023-04-15T06:02:38;7.88;;;6.75;;
77518;SDS011;66629;47.346;19.038;2023-04-15T06:05:03;7.80;;;5.70;;
77518;SDS011;66629;47.346;19.038;2023-04-15T06:07:33;7.57;;;5.70;;
77518;SDS011;66629;47.346;19.038;2023-04-15T06:09:59;7.80;;;5.25;;
77518;SDS011;66629;47.346;19.038;2023-04-15T06:12:25;7.38;;;5.47;;
77518;SDS011;66629;47.346;19.038;2023-04-15T06:14:50;6.13;;;4.55;;
77518;SDS011;66629;47.346;19.038;2023-04-15T06:17:16;7.03;;;4.80;;
77518;SDS011;66629;47.346;19.038;2023-04-15T06:19:42;5.32;;;3.95;;
77518;SDS011;66629;47.346;19.038;2023-04-15T06:22:08;4.70;;;3.47;;
77518;SDS011;66629;47.346;19.038;2023-04-15T06:24:33;4.70;;;3.63;;
77518;SDS011;66629;47.346;19.038;2023-04-15T06:27:01;4.70;;;3.20;;
77518;SDS011;66629;47.346;19.038;2023-04-15T06:29:27;4.20;;;3.30;;
77518;SDS011;66629;47.346;19.038;2023-04-15T06:31:52;6.20;;;3.00;;
77518;SDS011;66629;47.346;19.038;2023-04-15T06:34:18;4.95;;;2.97;;
77518;SDS011;66629;47.346;19.038;2023-04-15T06:36:43;4.32;;;3.40;;
77518;SDS011;66629;47.346;19.038;2023-04-15T06:39:09;4.13;;;3.03;;
77518;SDS011;66629;47.346;19.038;2023-04-15T06:41:34;6.43;;;2.65;;
77518;SDS011;66629;47.346;19.038;2023-04-15T06:44:00;4.57;;;3.20;;
77518;SDS011;66629;47.346;19.038;2023-04-15T06:46:25;4.38;;;2.53;;
77518;SDS011;66629;47.346;19.038;2023-04-15T06:48:51;4.25;;;3.03;;
77518;SDS011;66629;47.346;19.038;2023-04-15T06:51:16;3.72;;;2.85;;
77518;SDS011;66629;47.346;19.038;2023-04-15T06:53:43;4.78;;;3.40;;
77518;SDS011;66629;47.346;19.038;2023-04-15T06:56:09;4.32;;;3.10;;
77518;SDS011;66629;47.346;19.038;2023-04-15T06:58:34;4.65;;;3.10;;
77518;SDS011;66629;47.346;19.038;2023-04-15T07:01:00;5.63;;;3.38;;
77518;SDS011;66629;47.346;19.038;2023-04-15T07:03:26;4.05;;;3.03;;
77518;SDS011;66629;47.346;19.038;2023-04-15T07:05:52;4.03;;;3.05;;
77518;SDS011;66629;47.346;19.038;2023-04-15T07:08:20;7.65;;;3.25;;
77518;SDS011;66629;47.346;19.038;2023-04-15T07:10:45;4.13;;;3.00;;
77518;SDS011;66629;47.346;19.038;2023-04-15T07:13:11;7.10;;;3.20;;
77518;SDS011;66629;47.346;19.038;2023-04-15T07:15:37;4.15;;;2.90;;
77518;SDS011;66629;47.346;19.038;2023-04-15T07:18:03;3.38;;;3.05;;
77518;SDS011;66629;47.346;19.038;2023-04-15T07:20:29;3.28;;;2.70;;
77518;SDS011;66629;47.346;19.038;2023-04-15T07:22:54;5.32;;;2.45;;
77518;SDS011;66629;47.346;19.038;2023-04-15T07:25:20;3.60;;;2.60;;
77518;SDS011;66629;47.346;19.038;2023-04-15T07:27:45;4.80;;;2.70;;
77518;SDS011;66629;47.346;19.038;2023-04-15T07:30:11;3.20;;;2.70;;
77518;SDS011;66629;47.346;19.038;2023-04-15T07:32:37;2.88;;;2.28;;
77518;SDS011;66629;47.346;19.038;2023-04-15T07:35:02;2.88;;;2.10;;
77518;SDS011;66629;47.346;19.038;2023-04-15T07:37:28;3.60;;;2.15;;
77518;SDS011;66629;47.346;19.038;2023-04-15T07:39:54;2.25;;;1.85;;
77518;SDS011;66629;47.346;19.038;2023-04-15T07:42:19;4.07;;;2.40;;
77518;SDS011;66629;47.346;19.038;2023-04-15T07:44:46;2.63;;;2.20;;
77518;SDS011;66629;47.346;19.038;2023-04-15T07:47:11;4.65;;;2.47;;
77518;SDS011;66629;47.346;19.038;2023-04-15T07:49:37;2.90;;;2.13;;
77518;SDS011;66629;47.346;19.038;2023-04-15T07:52:02;3.10;;;2.40;;
77518;SDS011;66629;47.346;19.038;2023-04-15T07:54:28;4.05;;;2.47;;
77518;SDS011;66629;47.346;19.038;2023-04-15T07:56:53;2.55;;;2.30;;
77518;SDS011;66629;47.346;19.038;2023-04-15T07:59:20;3.33;;;2.38;;
77518;SDS011;66629;47.346;19.038;2023-04-15T08:01:45;6.65;;;2.88;;
77518;SDS011;66629;47.346;19.038;2023-04-15T08:04:11;4.30;;;3.20;;
77518;SDS011;66629;47.346;19.038;2023-04-15T08:06:36;8.50;;;4.03;;
77518;SDS011;66629;47.346;19.038;2023-04-15T08:09:03;6.82;;;4.13;;
77518;SDS011;66629;47.346;19.038;2023-04-15T08:11:30;7.10;;;4.78;;
77518;SDS011;66629;47.346;19.038;2023-04-15T08:13:55;7.57;;;4.20;;
77518;SDS011;66629;47.346;19.038;2023-04-15T08:16:22;6.22;;;3.92;;
77518;SDS011;66629;47.346;19.038;2023-04-15T08:18:49;4.03;;;3.03;;
77518;SDS011;66629;47.346;19.038;2023-04-15T08:21:16;3.72;;;2.78;;
77518;SDS011;66629;47.346;19.038;2023-04-15T08:23:42;3.60;;;2.65;;
77518;SDS011;66629;47.346;19.038;2023-04-15T08:26:08;4.28;;;2.50;;
77518;SDS011;66629;47.346;19.038;2023-04-15T08:28:34;3.78;;;2.90;;
77518;SDS011;66629;47.346;19.038;2023-04-15T08:31:04;5.45;;;3.60;;
77518;SDS011;66629;47.346;19.038;2023-04-15T08:33:29;6.00;;;2.90;;
77518;SDS011;66629;47.346;19.038;2023-04-15T08:35:55;6.22;;;3.35;;
77518;SDS011;66629;47.346;19.038;2023-04-15T08:38:20;4.75;;;2.83;;
77518;SDS011;66629;47.346;19.038;2023-04-15T08:40:46;5.70;;;3.85;;
77518;SDS011;66629;47.346;19.038;2023-04-15T08:43:14;4.70;;;3.22;;
77518;SDS011;66629;47.346;19.038;2023-04-15T08:45:43;5.38;;;3.30;;
77518;SDS011;66629;47.346;19.038;2023-04-15T08:48:12;5.70;;;3.58;;
77518;SDS011;66629;47.346;19.038;2023-04-15T08:50:40;2.45;;;2.10;;
77518;SDS011;66629;47.346;19.038;2023-04-15T08:53:06;7.60;;;2.40;;
77518;SDS011;66629;47.346;19.038;2023-04-15T08:55:32;2.60;;;1.90;;
77518;SDS011;66629;47.346;19.038;2023-04-15T08:58:04;4.28;;;2.35;;
77518;SDS011;66629;47.346;19.038;2023-04-15T09:00:30;3.22;;;1.90;;
77518;SDS011;66629;47.346;19.038;2023-04-15T09:02:57;7.75;;;3.00;;
77518;SDS011;66629;47.346;19.038;2023-04-15T09:05:23;2.45;;;2.00;;
77518;SDS011;66629;47.346;19.038;2023-04-15T09:07:49;2.30;;;1.70;;
77518;SDS011;66629;47.346;19.038;2023-04-15T09:10:16;2.75;;;1.77;;
77518;SDS011;66629;47.346;19.038;2023-04-15T09:12:44;3.10;;;2.20;;
77518;SDS011;66629;47.346;19.038;2023-04-15T09:15:10;4.22;;;3.08;;
77518;SDS011;66629;47.346;19.038;2023-04-15T09:17:41;3.92;;;2.60;;
77518;SDS011;66629;47.346;19.038;2023-04-15T09:20:08;4.90;;;3.50;;
77518;SDS011;66629;47.346;19.038;2023-04-15T09:22:39;5.10;;;3.38;;
77518;SDS011;66629;47.346;19.038;2023-04-15T09:25:27;5.43;;;3.10;;
77518;SDS011;66629;47.346;19.038;2023-04-15T09:27:54;3.70;;;3.00;;
77518;SDS011;66629;47.346;19.038;2023-04-15T09:30:21;3.40;;;2.00;;
77518;SDS011;66629;47.346;19.038;2023-04-15T09:33:00;3.33;;;2.17;;
77518;SDS011;66629;47.346;19.038;2023-04-15T09:35:27;2.85;;;2.30;;
77518;SDS011;66629;47.346;19.038;2023-04-15T09:37:53;2.13;;;1.73;;
77518;SDS011;66629;47.346;19.038;2023-04-15T09:40:31;3.55;;;1.30;;
77518;SDS011;66629;47.346;19.038;2023-04-15T09:42:57;1.98;;;1.67;;
77518;SDS011;66629;47.346;19.038;2023-04-15T09:45:23;2.40;;;1.38;;
77518;SDS011;66629;47.346;19.038;2023-04-15T09:47:49;2.67;;;1.45;;
77518;SDS011;66629;47.346;19.038;2023-04-15T09:50:18;4.05;;;1.77;;
77518;SDS011;66629;47.346;19.038;2023-04-15T09:52:45;3.55;;;2.45;;
77518;SDS011;66629;47.346;19.038;2023-04-15T09:55:11;2.35;;;2.00;;
77518;SDS011;66629;47.346;19.038;2023-04-15T09:57:38;3.22;;;1.67;;
77518;SDS011;66629;47.346;19.038;2023-04-15T10:00:08;1.30;;;1.20;;
77518;SDS011;66629;47.346;19.038;2023-04-15T10:02:35;1.30;;;1.20;;
77518;SDS011;66629;47.346;19.038;2023-04-15T10:05:02;1.20;;;1.10;;
77518;SDS011;66629;47.346;19.038;2023-04-15T10:07:28;10.20;;;6.03;;
77518;SDS011;66629;47.346;19.038;2023-04-15T10:09:54;1.95;;;1.75;;
77518;SDS011;66629;47.346;19.038;2023-04-15T10:12:20;1.48;;;1.38;;
77518;SDS011;66629;47.346;19.038;2023-04-15T10:14:47;0.88;;;0.88;;
77518;SDS011;66629;47.346;19.038;2023-04-15T10:17:17;0.90;;;0.90;;
77518;SDS011;66629;47.346;19.038;2023-04-15T10:19:45;1.00;;;1.00;;
77518;SDS011;66629;47.346;19.038;2023-04-15T10:22:12;1.33;;;1.05;;
77518;SDS011;66629;47.346;19.038;2023-04-15T10:24:38;1.10;;;1.08;;
77518;SDS011;66629;47.346;19.038;2023-04-15T10:27:04;1.30;;;1.20;;
77518;SDS011;66629;47.346;19.038;2023-04-15T10:29:30;1.40;;;1.30;;
77518;SDS011;66629;47.346;19.038;2023-04-15T10:31:56;1.98;;;1.20;;
77518;SDS011;66629;47.346;19.038;2023-04-15T10:34:23;1.15;;;1.00;;
77518;SDS011;66629;47.346;19.038;2023-04-15T10:36:50;1.83;;;1.35;;
77518;SDS011;66629;47.346;19.038;2023-04-15T10:42:06;1.10;;;1.10;;
77518;SDS011;66629;47.346;19.038;2023-04-15T10:44:34;1.48;;;1.38;;
77518;SDS011;66629;47.346;19.038;2023-04-15T10:47:03;2.38;;;1.42;;
77518;SDS011;66629;47.346;19.038;2023-04-15T10:49:34;1.63;;;1.30;;
77518;SDS011;66629;47.346;19.038;2023-04-15T10:52:09;1.92;;;1.20;;
77518;SDS011;66629;47.346;19.038;2023-04-15T10:54:35;2.05;;;1.40;;
77518;SDS011;66629;47.346;19.038;2023-04-15T10:59:31;1.13;;;1.02;;
77518;SDS011;66629;47.346;19.038;2023-04-15T11:02:01;2.88;;;1.27;;
77518;SDS011;66629;47.346;19.038;2023-04-15T11:08:07;1.95;;;1.20;;
77518;SDS011;66629;47.346;19.038;2023-04-15T11:12:42;1.30;;;1.20;;
77518;SDS011;66629;47.346;19.038;2023-04-15T11:17:58;3.67;;;1.60;;
77518;SDS011;66629;47.346;19.038;2023-04-15T11:20:24;1.70;;;1.42;;
77518;SDS011;66629;47.346;19.038;2023-04-15T11:22:51;2.78;;;1.70;;
77518;SDS011;66629;47.346;19.038;2023-04-15T11:25:28;1.23;;;1.10;;
77518;SDS011;66629;47.346;19.038;2023-04-15T11:27:55;1.48;;;1.38;;
77518;SDS011;66629;47.346;19.038;2023-04-15T11:30:25;1.30;;;1.20;;
77518;SDS011;66629;47.346;19.038;2023-04-15T11:32:53;1.30;;;1.20;;
77518;SDS011;66629;47.346;19.038;2023-04-15T11:35:21;1.40;;;1.30;;
77518;SDS011;66629;47.346;19.038;2023-04-15T11:37:47;2.20;;;1.70;;
77518;SDS011;66629;47.346;19.038;2023-04-15T11:40:16;1.33;;;1.23;;
77518;SDS011;66629;47.346;19.038;2023-04-15T11:42:46;1.20;;;1.10;;
77518;SDS011;66629;47.346;19.038;2023-04-15T11:45:12;2.42;;;1.50;;
77518;SDS011;66629;47.346;19.038;2023-04-15T11:47:40;18.30;;;8.52;;
77518;SDS011;66629;47.346;19.038;2023-04-15T11:50:39;20.75;;;7.07;;
77518;SDS011;66629;47.346;19.038;2023-04-15T11:52:59;9.63;;;5.18;;
77518;SDS011;66629;47.346;19.038;2023-04-15T11:55:26;7.53;;;5.45;;
77518;SDS011;66629;47.346;19.038;2023-04-15T11:58:11;3.22;;;2.10;;
77518;SDS011;66629;47.346;19.038;2023-04-15T12:00:49;11.35;;;9.25;;
77518;SDS011;66629;47.346;19.038;2023-04-15T12:03:25;7.53;;;4.82;;
77518;SDS011;66629;47.346;19.038;2023-04-15T12:06:30;5.35;;;3.67;;
77518;SDS011;66629;47.346;19.038;2023-04-15T12:08:54;4.63;;;3.28;;
77518;SDS011;66629;47.346;19.038;2023-04-15T12:11:37;3.63;;;2.90;;
77518;SDS011;66629;47.346;19.038;2023-04-15T12:22:04;6.32;;;3.90;;
77518;SDS011;66629;47.346;19.038;2023-04-15T12:24:34;3.28;;;2.50;;
77518;SDS011;66629;47.346;19.038;2023-04-15T12:27:03;4.20;;;2.20;;
77518;SDS011;66629;47.346;19.038;2023-04-15T12:29:30;4.07;;;2.58;;
77518;SDS011;66629;47.346;19.038;2023-04-15T12:32:03;2.53;;;2.03;;
77518;SDS011;66629;47.346;19.038;2023-04-15T12:34:29;3.42;;;2.50;;
77518;SDS011;66629;47.346;19.038;2023-04-15T12:36:56;2.47;;;1.90;;
77518;SDS011;66629;47.346;19.038;2023-04-15T12:39:23;2.90;;;1.95;;
77518;SDS011;66629;47.346;19.038;2023-04-15T12:41:50;2.70;;;1.98;;
77518;SDS011;66629;47.346;19.038;2023-04-15T12:44:16;1.70;;;1.60;;
77518;SDS011;66629;47.346;19.038;2023-04-15T12:46:42;3.35;;;2.38;;
77518;SDS011;66629;47.346;19.038;2023-04-15T12:49:08;3.03;;;2.25;;
77518;SDS011;66629;47.346;19.038;2023-04-15T12:51:33;4.18;;;2.50;;
77518;SDS011;66629;47.346;19.038;2023-04-15T12:53:59;2.67;;;1.77;;
77518;SDS011;66629;47.346;19.038;2023-04-15T12:56:25;4.45;;;1.50;;
77518;SDS011;66629;47.346;19.038;2023-04-15T12:58:51;4.45;;;2.00;;
77518;SDS011;66629;47.346;19.038;2023-04-15T13:01:16;2.92;;;1.90;;
77518;SDS011;66629;47.346;19.038;2023-04-15T13:03:42;2.80;;;2.10;;
77518;SDS011;66629;47.346;19.038;2023-04-15T13:06:08;6.53;;;1.95;;
77518;SDS011;66629;47.346;19.038;2023-04-15T13:08:33;5.15;;;2.75;;
77518;SDS011;66629;47.346;19.038;2023-04-15T13:10:59;5.28;;;2.72;;
77518;SDS011;66629;47.346;19.038;2023-04-15T13:13:24;5.22;;;3.42;;
77518;SDS011;66629;47.346;19.038;2023-04-15T13:15:51;8.55;;;3.28;;
77518;SDS011;66629;47.346;19.038;2023-04-15T13:18:16;4.55;;;2.90;;
77518;SDS011;66629;47.346;19.038;2023-04-15T13:20:42;5.85;;;3.50;;
77518;SDS011;66629;47.346;19.038;2023-04-15T13:23:07;6.47;;;3.75;;
77518;SDS011;66629;47.346;19.038;2023-04-15T13:25:33;7.38;;;3.72;;
77518;SDS011;66629;47.346;19.038;2023-04-15T13:27:58;6.72;;;2.85;;
77518;SDS011;66629;47.346;19.038;2023-04-15T13:30:25;6.30;;;2.90;;
77518;SDS011;66629;47.346;19.038;2023-04-15T13:32:51;5.00;;;2.75;;
77518;SDS011;66629;47.346;19.038;2023-04-15T13:35:17;4.10;;;2.75;;
77518;SDS011;66629;47.346;19.038;2023-04-15T13:37:43;5.55;;;3.28;;
77518;SDS011;66629;47.346;19.038;2023-04-15T13:40:09;2.78;;;2.20;;
77518;SDS011;66629;47.346;19.038;2023-04-15T13:42:35;1.90;;;1.60;;
77518;SDS011;66629;47.346;19.038;2023-04-15T13:45:01;2.08;;;1.60;;
77518;SDS011;66629;47.346;19.038;2023-04-15T13:47:27;2.53;;;1.92;;
77518;SDS011;66629;47.346;19.038;2023-04-15T13:49:52;2.78;;;2.13;;
77518;SDS011;66629;47.346;19.038;2023-04-15T13:52:20;4.43;;;3.22;;
77518;SDS011;66629;47.346;19.038;2023-04-15T13:54:45;6.18;;;3.95;;
77518;SDS011;66629;47.346;19.038;2023-04-15T13:57:11;5.80;;;4.20;;
77518;SDS011;66629;47.346;19.038;2023-04-15T13:59:37;5.55;;;3.85;;
77518;SDS011;66629;47.346;19.038;2023-04-15T14:02:02;5.07;;;3.42;;
77518;SDS011;66629;47.346;19.038;2023-04-15T14:04:29;7.60;;;3.70;;
77518;SDS011;66629;47.346;19.038;2023-04-15T14:06:55;4.72;;;2.97;;
77518;SDS011;66629;47.346;19.038;2023-04-15T14:09:21;4.03;;;3.10;;
77518;SDS011;66629;47.346;19.038;2023-04-15T14:11:48;4.45;;;2.92;;
77518;SDS011;66629;47.346;19.038;2023-04-15T14:14:14;4.45;;;2.80;;
77518;SDS011;66629;47.346;19.038;2023-04-15T14:16:39;3.78;;;2.53;;
77518;SDS011;66629;47.346;19.038;2023-04-15T14:19:05;2.88;;;2.10;;
77518;SDS011;66629;47.346;19.038;2023-04-15T14:21:30;2.30;;;1.70;;
77518;SDS011;66629;47.346;19.038;2023-04-15T14:23:56;2.88;;;1.70;;
77518;SDS011;66629;47.346;19.038;2023-04-15T14:26:22;3.58;;;1.52;;
77518;SDS011;66629;47.346;19.038;2023-04-15T14:28:48;3.55;;;1.92;;
77518;SDS011;66629;47.346;19.038;2023-04-15T14:31:13;1.50;;;1.40;;
77518;SDS011;66629;47.346;19.038;2023-04-15T14:33:39;1.20;;;1.10;;
77518;SDS011;66629;47.346;19.038;2023-04-15T14:36:05;2.05;;;1.30;;
77518;SDS011;66629;47.346;19.038;2023-04-15T14:38:33;1.85;;;1.20;;
77518;SDS011;66629;47.346;19.038;2023-04-15T14:41:02;2.13;;;1.67;;
77518;SDS011;66629;47.346;19.038;2023-04-15T14:43:28;1.50;;;1.40;;
77518;SDS011;66629;47.346;19.038;2023-04-15T14:45:54;0.95;;;0.93;;
77518;SDS011;66629;47.346;19.038;2023-04-15T14:48:19;1.60;;;1.08;;
77518;SDS011;66629;47.346;19.038;2023-04-15T14:50:45;4.55;;;2.65;;